sensor_id;sensor_type;location;lat;lon;timestamp;P1;durP1;ratioP1;P2;durP2;ratioP2
35530;SDS011;21637;53.352;-6.356;2023-11-22T00:01:21;10.00;;;3.25;;
35530;SDS011;21637;53.352;-6.356;2023-11-22T00:03:47;7.28;;;2.83;;
35530;SDS011;21637;53.352;-6.356;2023-11-22T00:06:13;4.95;;;2.15;;
35530;SDS011;21637;53.352;-6.356;2023-11-22T00:08:39;8.80;;;2.28;;
35530;SDS011;21637;53.352;-6.356;2023-11-22T00:11:04;7.03;;;2.33;;
35530;SDS011;21637;53.352;-6.356;2023-11-22T00:13:30;8.40;;;2.20;;
35530;SDS011;21637;53.352;-6.356;2023-11-22T00:15:57;8.27;;;2.25;;
35530;SDS011;21637;53.352;-6.356;2023-11-22T00:18:23;4.20;;;1.95;;
35530;SDS011;21637;53.352;-6.356;2023-11-22T00:20:49;5.07;;;2.25;;
35530;SDS011;21637;53.352;-6.356;2023-11-22T00:23:15;9.07;;;2.38;;
35530;SDS011;21637;53.352;-6.356;2023-11-22T00:25:41;5.75;;;2.20;;
35530;SDS011;21637;53.352;-6.356;2023-11-22T00:28:07;5.07;;;2.72;;
35530;SDS011;21637;53.352;-6.356;2023-11-22T00:30:33;6.10;;;2.70;;
35530;SDS011;21637;53.352;-6.356;2023-11-22T00:32:59;6.55;;;2.58;;
35530;SDS011;21637;53.352;-6.356;2023-11-22T00:35:24;6.38;;;2.88;;
35530;SDS011;21637;53.352;-6.356;2023-11-22T00:37:50;7.50;;;2.45;;
35530;SDS011;21637;53.352;-6.356;2023-11-22T00:40:16;5.32;;;2.28;;
35530;SDS011;21637;53.352;-6.356;2023-11-22T00:42:41;8.02;;;2.15;;
35530;SDS011;21637;53.352;-6.356;2023-11-22T00:45:08;6.35;;;2.33;;
35530;SDS011;21637;53.352;-6.356;2023-11-22T00:47:35;6.45;;;2.30;;
35530;SDS011;21637;53.352;-6.356;2023-11-22T00:50:01;3.30;;;2.20;;
35530;SDS011;21637;53.352;-6.356;2023-11-22T00:52:29;2.83;;;2.10;;
35530;SDS011;21637;53.352;-6.356;2023-11-22T00:54:55;5.10;;;2.10;;
35530;SDS011;21637;53.352;-6.356;2023-11-22T00:57:21;7.68;;;2.42;;
35530;SDS011;21637;53.352;-6.356;2023-11-22T00:59:47;5.32;;;2.25;;
35530;SDS011;21637;53.352;-6.356;2023-11-22T01:02:13;4.90;;;1.98;;
35530;SDS011;21637;53.352;-6.356;2023-11-22T01:04:39;5.25;;;2.35;;
35530;SDS011;21637;53.352;-6.356;2023-11-22T01:07:05;4.85;;;2.28;;
35530;SDS011;21637;53.352;-6.356;2023-11-22T01:09:31;3.80;;;2.20;;
35530;SDS011;21637;53.352;-6.356;2023-11-22T01:11:58;4.50;;;2.10;;
35530;SDS011;21637;53.352;-6.356;2023-11-22T01:14:24;3.75;;;2.30;;
35530;SDS011;21637;53.352;-6.356;2023-11-22T01:16:51;3.50;;;2.38;;
35530;SDS011;21637;53.352;-6.356;2023-11-22T01:19:17;3.10;;;2.53;;
35530;SDS011;21637;53.352;-6.356;2023-11-22T01:21:43;6.18;;;2.60;;
35530;SDS011;21637;53.352;-6.356;2023-11-22T01:24:09;4.97;;;2.63;;
35530;SDS011;21637;53.352;-6.356;2023-11-22T01:26:35;5.97;;;3.35;;
35530;SDS011;21637;53.352;-6.356;2023-11-22T01:29:00;7.10;;;3.60;;
35530;SDS011;21637;53.352;-6.356;2023-11-22T01:31:27;6.97;;;3.67;;
35530;SDS011;21637;53.352;-6.356;2023-11-22T01:33:53;7.93;;;3.97;;
35530;SDS011;21637;53.352;-6.356;2023-11-22T01:36:19;4.75;;;2.53;;
35530;SDS011;21637;53.352;-6.356;2023-11-22T01:38:45;5.35;;;2.63;;
35530;SDS011;21637;53.352;-6.356;2023-11-22T01:41:11;9.43;;;3.28;;
35530;SDS011;21637;53.352;-6.356;2023-11-22T01:43:38;7.00;;;3.63;;
35530;SDS011;21637;53.352;-6.356;2023-11-22T01:46:14;4.93;;;2.72;;
35530;SDS011;21637;53.352;-6.356;2023-11-22T01:48:58;6.95;;;2.97;;
35530;SDS011;21637;53.352;-6.356;2023-11-22T01:51:25;6.22;;;2.53;;
35530;SDS011;21637;53.352;-6.356;2023-11-22T01:53:52;4.82;;;2.60;;
35530;SDS011;21637;53.352;-6.356;2023-11-22T01:56:21;5.88;;;2.80;;
35530;SDS011;21637;53.352;-6.356;2023-11-22T01:58:48;4.90;;;2.60;;
35530;SDS011;21637;53.352;-6.356;2023-11-22T02:01:15;4.72;;;2.97;;
35530;SDS011;21637;53.352;-6.356;2023-11-22T02:03:41;5.57;;;3.00;;
35530;SDS011;21637;53.352;-6.356;2023-11-22T02:06:07;4.32;;;2.83;;
35530;SDS011;21637;53.352;-6.356;2023-11-22T02:08:34;6.25;;;2.83;;
35530;SDS011;21637;53.352;-6.356;2023-11-22T02:11:00;3.97;;;2.33;;
35530;SDS011;21637;53.352;-6.356;2023-11-22T02:13:30;4.95;;;2.45;;
35530;SDS011;21637;53.352;-6.356;2023-11-22T02:15:56;5.32;;;2.55;;
35530;SDS011;21637;53.352;-6.356;2023-11-22T02:18:25;5.07;;;2.80;;
35530;SDS011;21637;53.352;-6.356;2023-11-22T02:20:51;4.53;;;2.60;;
35530;SDS011;21637;53.352;-6.356;2023-11-22T02:23:17;6.93;;;2.75;;
35530;SDS011;21637;53.352;-6.356;2023-11-22T02:25:43;6.57;;;2.40;;
35530;SDS011;21637;53.352;-6.356;2023-11-22T02:28:10;6.22;;;3.38;;
35530;SDS011;21637;53.352;-6.356;2023-11-22T02:30:37;2.97;;;2.47;;
35530;SDS011;21637;53.352;-6.356;2023-11-22T02:33:03;4.22;;;2.28;;
35530;SDS011;21637;53.352;-6.356;2023-11-22T02:35:32;6.88;;;2.70;;
35530;SDS011;21637;53.352;-6.356;2023-11-22T02:37:58;5.88;;;2.63;;
35530;SDS011;21637;53.352;-6.356;2023-11-22T02:40:25;4.03;;;2.60;;
35530;SDS011;21637;53.352;-6.356;2023-11-22T02:42:51;3.72;;;2.40;;
35530;SDS011;21637;53.352;-6.356;2023-11-22T02:45:26;2.63;;;2.10;;
35530;SDS011;21637;53.352;-6.356;2023-11-22T02:47:53;2.78;;;2.40;;
35530;SDS011;21637;53.352;-6.356;2023-11-22T02:50:19;4.03;;;1.88;;
35530;SDS011;21637;53.352;-6.356;2023-11-22T02:52:45;3.45;;;2.20;;
35530;SDS011;21637;53.352;-6.356;2023-11-22T02:55:11;3.60;;;1.95;;
35530;SDS011;21637;53.352;-6.356;2023-11-22T02:57:37;2.83;;;2.08;;
35530;SDS011;21637;53.352;-6.356;2023-11-22T03:00:04;2.40;;;2.10;;
35530;SDS011;21637;53.352;-6.356;2023-11-22T03:02:32;3.88;;;1.77;;
35530;SDS011;21637;53.352;-6.356;2023-11-22T03:04:58;2.95;;;1.77;;
35530;SDS011;21637;53.352;-6.356;2023-11-22T03:07:24;4.25;;;1.90;;
35530;SDS011;21637;53.352;-6.356;2023-11-22T03:09:50;3.00;;;2.28;;
35530;SDS011;21637;53.352;-6.356;2023-11-22T03:12:18;3.85;;;2.20;;
35530;SDS011;21637;53.352;-6.356;2023-11-22T03:14:45;3.45;;;2.22;;
35530;SDS011;21637;53.352;-6.356;2023-11-22T03:17:14;4.25;;;2.63;;
35530;SDS011;21637;53.352;-6.356;2023-11-22T03:19:40;3.85;;;3.03;;
35530;SDS011;21637;53.352;-6.356;2023-11-22T03:22:06;4.60;;;2.63;;
35530;SDS011;21637;53.352;-6.356;2023-11-22T03:24:32;4.43;;;2.72;;
35530;SDS011;21637;53.352;-6.356;2023-11-22T03:27:02;2.90;;;2.30;;
35530;SDS011;21637;53.352;-6.356;2023-11-22T03:29:28;3.25;;;2.45;;
35530;SDS011;21637;53.352;-6.356;2023-11-22T03:31:54;3.38;;;2.60;;
35530;SDS011;21637;53.352;-6.356;2023-11-22T03:34:20;3.55;;;2.28;;
35530;SDS011;21637;53.352;-6.356;2023-11-22T03:36:46;3.70;;;2.45;;
35530;SDS011;21637;53.352;-6.356;2023-11-22T03:39:14;2.75;;;2.28;;
35530;SDS011;21637;53.352;-6.356;2023-11-22T03:41:41;5.53;;;2.42;;
35530;SDS011;21637;53.352;-6.356;2023-11-22T03:44:07;3.08;;;2.42;;
35530;SDS011;21637;53.352;-6.356;2023-11-22T03:46:36;4.47;;;2.22;;
35530;SDS011;21637;53.352;-6.356;2023-11-22T03:49:05;3.53;;;2.10;;
35530;SDS011;21637;53.352;-6.356;2023-11-22T03:51:34;2.80;;;2.20;;
35530;SDS011;21637;53.352;-6.356;2023-11-22T03:54:00;3.28;;;2.30;;
35530;SDS011;21637;53.352;-6.356;2023-11-22T03:56:30;2.15;;;1.88;;
35530;SDS011;21637;53.352;-6.356;2023-11-22T03:58:55;2.78;;;2.30;;
35530;SDS011;21637;53.352;-6.356;2023-11-22T04:01:21;4.50;;;2.38;;
35530;SDS011;21637;53.352;-6.356;2023-11-22T04:03:47;3.15;;;2.20;;
35530;SDS011;21637;53.352;-6.356;2023-11-22T04:06:17;5.90;;;2.25;;
35530;SDS011;21637;53.352;-6.356;2023-11-22T04:08:44;2.80;;;2.08;;
35530;SDS011;21637;53.352;-6.356;2023-11-22T04:11:11;4.07;;;2.10;;
35530;SDS011;21637;53.352;-6.356;2023-11-22T04:13:41;2.28;;;1.88;;
35530;SDS011;21637;53.352;-6.356;2023-11-22T04:16:07;5.30;;;2.20;;
35530;SDS011;21637;53.352;-6.356;2023-11-22T04:18:36;3.17;;;1.95;;
35530;SDS011;21637;53.352;-6.356;2023-11-22T04:21:08;2.85;;;2.30;;
35530;SDS011;21637;53.352;-6.356;2023-11-22T04:23:34;4.05;;;2.00;;
35530;SDS011;21637;53.352;-6.356;2023-11-22T04:26:00;2.35;;;2.15;;
35530;SDS011;21637;53.352;-6.356;2023-11-22T04:28:27;3.67;;;2.13;;
35530;SDS011;21637;53.352;-6.356;2023-11-22T04:30:56;2.30;;;2.10;;
35530;SDS011;21637;53.352;-6.356;2023-11-22T04:33:22;3.95;;;2.10;;
35530;SDS011;21637;53.352;-6.356;2023-11-22T04:35:49;3.95;;;2.03;;
35530;SDS011;21637;53.352;-6.356;2023-11-22T04:38:14;2.58;;;1.35;;
35530;SDS011;21637;53.352;-6.356;2023-11-22T04:40:40;3.95;;;1.90;;
35530;SDS011;21637;53.352;-6.356;2023-11-22T04:43:07;3.30;;;1.73;;
35530;SDS011;21637;53.352;-6.356;2023-11-22T04:45:33;2.05;;;1.52;;
35530;SDS011;21637;53.352;-6.356;2023-11-22T04:47:59;1.75;;;1.40;;
35530;SDS011;21637;53.352;-6.356;2023-11-22T04:50:26;3.25;;;1.30;;
35530;SDS011;21637;53.352;-6.356;2023-11-22T04:52:51;2.13;;;1.50;;
35530;SDS011;21637;53.352;-6.356;2023-11-22T04:55:17;3.35;;;1.40;;
35530;SDS011;21637;53.352;-6.356;2023-11-22T04:57:48;1.08;;;0.98;;
35530;SDS011;21637;53.352;-6.356;2023-11-22T05:00:14;3.50;;;1.35;;
35530;SDS011;21637;53.352;-6.356;2023-11-22T05:02:40;1.20;;;1.10;;
35530;SDS011;21637;53.352;-6.356;2023-11-22T05:05:06;2.47;;;1.13;;
35530;SDS011;21637;53.352;-6.356;2023-11-22T05:07:35;1.50;;;1.10;;
35530;SDS011;21637;53.352;-6.356;2023-11-22T05:10:01;4.65;;;1.30;;
35530;SDS011;21637;53.352;-6.356;2023-11-22T05:12:28;1.00;;;0.88;;
35530;SDS011;21637;53.352;-6.356;2023-11-22T05:14:54;1.42;;;1.05;;
35530;SDS011;21637;53.352;-6.356;2023-11-22T05:17:19;0.95;;;0.90;;
35530;SDS011;21637;53.352;-6.356;2023-11-22T05:19:45;1.48;;;1.00;;
35530;SDS011;21637;53.352;-6.356;2023-11-22T05:22:11;1.63;;;0.88;;
35530;SDS011;21637;53.352;-6.356;2023-11-22T05:24:36;5.07;;;0.95;;
35530;SDS011;21637;53.352;-6.356;2023-11-22T05:27:06;2.85;;;0.90;;
35530;SDS011;21637;53.352;-6.356;2023-11-22T05:29:33;1.10;;;0.80;;
35530;SDS011;21637;53.352;-6.356;2023-11-22T05:31:59;2.72;;;1.00;;
35530;SDS011;21637;53.352;-6.356;2023-11-22T05:34:25;3.63;;;1.25;;
35530;SDS011;21637;53.352;-6.356;2023-11-22T05:36:51;1.95;;;1.00;;
35530;SDS011;21637;53.352;-6.356;2023-11-22T05:39:17;3.65;;;1.27;;
35530;SDS011;21637;53.352;-6.356;2023-11-22T05:41:43;2.50;;;1.10;;
35530;SDS011;21637;53.352;-6.356;2023-11-22T05:44:09;1.70;;;0.93;;
35530;SDS011;21637;53.352;-6.356;2023-11-22T05:46:35;4.47;;;1.55;;
35530;SDS011;21637;53.352;-6.356;2023-11-22T05:49:01;1.85;;;0.98;;
35530;SDS011;21637;53.352;-6.356;2023-11-22T05:51:27;2.28;;;0.90;;
35530;SDS011;21637;53.352;-6.356;2023-11-22T05:53:53;1.95;;;0.90;;
35530;SDS011;21637;53.352;-6.356;2023-11-22T05:56:18;1.50;;;0.95;;
35530;SDS011;21637;53.352;-6.356;2023-11-22T05:58:44;2.45;;;1.10;;
35530;SDS011;21637;53.352;-6.356;2023-11-22T06:01:10;3.83;;;1.10;;
35530;SDS011;21637;53.352;-6.356;2023-11-22T06:03:39;3.97;;;1.40;;
35530;SDS011;21637;53.352;-6.356;2023-11-22T06:06:05;2.90;;;1.20;;
35530;SDS011;21637;53.352;-6.356;2023-11-22T06:08:32;1.77;;;1.05;;
35530;SDS011;21637;53.352;-6.356;2023-11-22T06:10:57;4.68;;;0.90;;
35530;SDS011;21637;53.352;-6.356;2023-11-22T06:13:24;2.72;;;1.15;;
35530;SDS011;21637;53.352;-6.356;2023-11-22T06:15:50;4.38;;;1.67;;
35530;SDS011;21637;53.352;-6.356;2023-11-22T06:18:17;4.70;;;1.17;;
35530;SDS011;21637;53.352;-6.356;2023-11-22T06:20:44;2.78;;;1.10;;
35530;SDS011;21637;53.352;-6.356;2023-11-22T06:23:10;3.78;;;1.05;;
35530;SDS011;21637;53.352;-6.356;2023-11-22T06:25:35;5.97;;;1.20;;
35530;SDS011;21637;53.352;-6.356;2023-11-22T06:28:02;2.58;;;1.13;;
35530;SDS011;21637;53.352;-6.356;2023-11-22T06:30:28;3.28;;;1.35;;
35530;SDS011;21637;53.352;-6.356;2023-11-22T06:32:55;2.33;;;1.17;;
35530;SDS011;21637;53.352;-6.356;2023-11-22T06:35:21;2.75;;;1.17;;
35530;SDS011;21637;53.352;-6.356;2023-11-22T06:37:48;5.40;;;1.48;;
35530;SDS011;21637;53.352;-6.356;2023-11-22T06:40:14;5.00;;;1.38;;
35530;SDS011;21637;53.352;-6.356;2023-11-22T06:42:40;5.13;;;1.75;;
35530;SDS011;21637;53.352;-6.356;2023-11-22T06:45:06;7.78;;;1.50;;
35530;SDS011;21637;53.352;-6.356;2023-11-22T06:47:37;3.80;;;1.63;;
35530;SDS011;21637;53.352;-6.356;2023-11-22T06:52:51;4.32;;;1.40;;
35530;SDS011;21637;53.352;-6.356;2023-11-22T06:55:17;5.25;;;1.40;;
35530;SDS011;21637;53.352;-6.356;2023-11-22T06:57:43;2.15;;;1.38;;
35530;SDS011;21637;53.352;-6.356;2023-11-22T07:00:10;4.10;;;1.50;;
35530;SDS011;21637;53.352;-6.356;2023-11-22T07:02:37;5.03;;;1.80;;
35530;SDS011;21637;53.352;-6.356;2023-11-22T07:05:04;4.53;;;1.95;;
35530;SDS011;21637;53.352;-6.356;2023-11-22T07:07:37;4.18;;;2.20;;
35530;SDS011;21637;53.352;-6.356;2023-11-22T07:10:03;3.13;;;1.67;;
35530;SDS011;21637;53.352;-6.356;2023-11-22T07:12:30;3.45;;;1.60;;
35530;SDS011;21637;53.352;-6.356;2023-11-22T07:14:56;11.82;;;2.78;;
35530;SDS011;21637;53.352;-6.356;2023-11-22T07:17:22;6.97;;;1.92;;
35530;SDS011;21637;53.352;-6.356;2023-11-22T07:19:48;4.68;;;1.70;;
35530;SDS011;21637;53.352;-6.356;2023-11-22T07:22:14;4.63;;;2.50;;
35530;SDS011;21637;53.352;-6.356;2023-11-22T07:24:47;3.33;;;1.77;;
35530;SDS011;21637;53.352;-6.356;2023-11-22T07:27:16;8.15;;;2.30;;
35530;SDS011;21637;53.352;-6.356;2023-11-22T07:29:44;4.93;;;2.05;;
35530;SDS011;21637;53.352;-6.356;2023-11-22T07:32:11;8.50;;;2.33;;
35530;SDS011;21637;53.352;-6.356;2023-11-22T07:34:37;7.13;;;2.15;;
35530;SDS011;21637;53.352;-6.356;2023-11-22T07:37:04;6.00;;;1.85;;
35530;SDS011;21637;53.352;-6.356;2023-11-22T07:39:34;5.82;;;2.20;;
35530;SDS011;21637;53.352;-6.356;2023-11-22T07:42:01;15.32;;;4.28;;
35530;SDS011;21637;53.352;-6.356;2023-11-22T07:44:27;7.85;;;2.15;;
35530;SDS011;21637;53.352;-6.356;2023-11-22T07:46:53;8.73;;;2.10;;
35530;SDS011;21637;53.352;-6.356;2023-11-22T07:49:19;8.20;;;2.10;;
35530;SDS011;21637;53.352;-6.356;2023-11-22T07:51:46;7.82;;;2.60;;
35530;SDS011;21637;53.352;-6.356;2023-11-22T07:54:12;5.55;;;2.28;;
35530;SDS011;21637;53.352;-6.356;2023-11-22T07:56:41;8.48;;;2.83;;
35530;SDS011;21637;53.352;-6.356;2023-11-22T07:59:11;4.65;;;2.05;;
35530;SDS011;21637;53.352;-6.356;2023-11-22T08:01:36;6.68;;;2.33;;
35530;SDS011;21637;53.352;-6.356;2023-11-22T08:04:03;8.60;;;2.30;;
35530;SDS011;21637;53.352;-6.356;2023-11-22T08:06:30;8.57;;;2.60;;
35530;SDS011;21637;53.352;-6.356;2023-11-22T08:09:00;5.85;;;2.55;;
35530;SDS011;21637;53.352;-6.356;2023-11-22T08:11:26;10.35;;;2.67;;
35530;SDS011;21637;53.352;-6.356;2023-11-22T08:13:53;7.00;;;3.10;;
35530;SDS011;21637;53.352;-6.356;2023-11-22T08:16:23;8.52;;;3.00;;
35530;SDS011;21637;53.352;-6.356;2023-11-22T08:18:48;8.10;;;2.72;;
35530;SDS011;21637;53.352;-6.356;2023-11-22T08:21:14;11.15;;;2.47;;
35530;SDS011;21637;53.352;-6.356;2023-11-22T08:23:40;7.97;;;2.80;;
35530;SDS011;21637;53.352;-6.356;2023-11-22T08:26:06;9.60;;;2.67;;
35530;SDS011;21637;53.352;-6.356;2023-11-22T08:28:33;6.43;;;2.55;;
35530;SDS011;21637;53.352;-6.356;2023-11-22T08:30:59;11.25;;;5.28;;
35530;SDS011;21637;53.352;-6.356;2023-11-22T08:33:26;8.10;;;3.03;;
35530;SDS011;21637;53.352;-6.356;2023-11-22T08:35:51;6.30;;;2.50;;
35530;SDS011;21637;53.352;-6.356;2023-11-22T08:38:23;7.10;;;2.50;;
35530;SDS011;21637;53.352;-6.356;2023-11-22T08:40:51;3.55;;;1.90;;
35530;SDS011;21637;53.352;-6.356;2023-11-22T08:43:17;6.85;;;2.53;;
35530;SDS011;21637;53.352;-6.356;2023-11-22T08:45:47;6.63;;;2.70;;
35530;SDS011;21637;53.352;-6.356;2023-11-22T08:48:14;6.80;;;2.30;;
35530;SDS011;21637;53.352;-6.356;2023-11-22T08:50:40;6.50;;;2.90;;
35530;SDS011;21637;53.352;-6.356;2023-11-22T08:53:06;10.60;;;2.80;;
35530;SDS011;21637;53.352;-6.356;2023-11-22T08:55:33;10.23;;;2.83;;
35530;SDS011;21637;53.352;-6.356;2023-11-22T08:57:59;7.75;;;2.53;;
35530;SDS011;21637;53.352;-6.356;2023-11-22T09:00:25;7.05;;;2.60;;
35530;SDS011;21637;53.352;-6.356;2023-11-22T09:02:53;10.88;;;2.78;;
35530;SDS011;21637;53.352;-6.356;2023-11-22T09:05:22;7.70;;;1.88;;
35530;SDS011;21637;53.352;-6.356;2023-11-22T09:07:47;4.20;;;2.25;;
35530;SDS011;21637;53.352;-6.356;2023-11-22T09:10:13;8.25;;;2.00;;
35530;SDS011;21637;53.352;-6.356;2023-11-22T09:12:39;7.65;;;2.35;;
35530;SDS011;21637;53.352;-6.356;2023-11-22T09:15:12;7.78;;;2.28;;
35530;SDS011;21637;53.352;-6.356;2023-11-22T09:17:41;6.90;;;2.20;;
35530;SDS011;21637;53.352;-6.356;2023-11-22T09:20:15;6.00;;;1.92;;
35530;SDS011;21637;53.352;-6.356;2023-11-22T09:22:48;5.75;;;1.83;;
35530;SDS011;21637;53.352;-6.356;2023-11-22T09:27:42;7.22;;;2.25;;
35530;SDS011;21637;53.352;-6.356;2023-11-22T09:30:12;5.10;;;2.25;;
35530;SDS011;21637;53.352;-6.356;2023-11-22T09:32:47;5.32;;;2.20;;
35530;SDS011;21637;53.352;-6.356;2023-11-22T09:35:14;4.68;;;2.13;;
35530;SDS011;21637;53.352;-6.356;2023-11-22T09:37:40;5.38;;;2.25;;
35530;SDS011;21637;53.352;-6.356;2023-11-22T09:40:10;6.25;;;2.25;;
35530;SDS011;21637;53.352;-6.356;2023-11-22T09:42:37;7.18;;;1.95;;
35530;SDS011;21637;53.352;-6.356;2023-11-22T09:45:03;4.00;;;2.08;;
35530;SDS011;21637;53.352;-6.356;2023-11-22T09:47:31;3.60;;;2.03;;
35530;SDS011;21637;53.352;-6.356;2023-11-22T09:50:00;3.00;;;1.60;;
35530;SDS011;21637;53.352;-6.356;2023-11-22T09:52:30;6.60;;;2.10;;
35530;SDS011;21637;53.352;-6.356;2023-11-22T09:54:59;5.38;;;2.13;;
35530;SDS011;21637;53.352;-6.356;2023-11-22T09:57:27;3.10;;;1.88;;
35530;SDS011;21637;53.352;-6.356;2023-11-22T09:59:55;4.50;;;1.70;;
35530;SDS011;21637;53.352;-6.356;2023-11-22T10:02:22;3.33;;;1.80;;
35530;SDS011;21637;53.352;-6.356;2023-11-22T10:04:52;3.78;;;1.83;;
35530;SDS011;21637;53.352;-6.356;2023-11-22T10:07:19;3.35;;;1.73;;
35530;SDS011;21637;53.352;-6.356;2023-11-22T10:09:45;4.75;;;1.70;;
35530;SDS011;21637;53.352;-6.356;2023-11-22T10:12:13;5.68;;;1.70;;
35530;SDS011;21637;53.352;-6.356;2023-11-22T10:14:46;1.95;;;1.40;;
35530;SDS011;21637;53.352;-6.356;2023-11-22T10:17:12;2.92;;;1.75;;
35530;SDS011;21637;53.352;-6.356;2023-11-22T10:19:41;1.50;;;1.13;;
35530;SDS011;21637;53.352;-6.356;2023-11-22T10:22:07;3.35;;;1.92;;
35530;SDS011;21637;53.352;-6.356;2023-11-22T10:24:34;2.13;;;1.40;;
35530;SDS011;21637;53.352;-6.356;2023-11-22T10:27:03;4.32;;;1.30;;
35530;SDS011;21637;53.352;-6.356;2023-11-22T10:29:29;3.70;;;1.48;;
35530;SDS011;21637;53.352;-6.356;2023-11-22T10:31:54;2.05;;;1.40;;
35530;SDS011;21637;53.352;-6.356;2023-11-22T10:34:23;2.97;;;1.30;;
35530;SDS011;21637;53.352;-6.356;2023-11-22T10:36:50;2.30;;;1.45;;
35530;SDS011;21637;53.352;-6.356;2023-11-22T10:39:20;4.90;;;1.08;;
35530;SDS011;21637;53.352;-6.356;2023-11-22T10:41:47;2.85;;;1.33;;
35530;SDS011;21637;53.352;-6.356;2023-11-22T10:44:15;2.85;;;1.38;;
35530;SDS011;21637;53.352;-6.356;2023-11-22T10:49:15;2.45;;;1.67;;
35530;SDS011;21637;53.352;-6.356;2023-11-22T10:51:41;3.83;;;1.60;;
35530;SDS011;21637;53.352;-6.356;2023-11-22T10:54:13;2.47;;;1.80;;
35530;SDS011;21637;53.352;-6.356;2023-11-22T10:56:39;3.63;;;1.95;;
35530;SDS011;21637;53.352;-6.356;2023-11-22T10:59:10;4.47;;;2.00;;
35530;SDS011;21637;53.352;-6.356;2023-11-22T11:01:40;3.75;;;1.85;;
35530;SDS011;21637;53.352;-6.356;2023-11-22T11:04:23;3.72;;;1.95;;
35530;SDS011;21637;53.352;-6.356;2023-11-22T11:06:53;2.15;;;1.52;;
35530;SDS011;21637;53.352;-6.356;2023-11-22T11:09:22;4.60;;;1.90;;
35530;SDS011;21637;53.352;-6.356;2023-11-22T11:11:57;3.15;;;2.00;;
35530;SDS011;21637;53.352;-6.356;2023-11-22T11:14:23;2.85;;;1.75;;
35530;SDS011;21637;53.352;-6.356;2023-11-22T11:16:50;3.35;;;1.52;;
35530;SDS011;21637;53.352;-6.356;2023-11-22T11:19:19;2.58;;;1.08;;
35530;SDS011;21637;53.352;-6.356;2023-11-22T11:21:50;4.05;;;1.40;;
35530;SDS011;21637;53.352;-6.356;2023-11-22T11:24:16;1.83;;;1.30;;
35530;SDS011;21637;53.352;-6.356;2023-11-22T11:26:49;5.47;;;1.40;;
35530;SDS011;21637;53.352;-6.356;2023-11-22T11:29:29;1.90;;;1.17;;
35530;SDS011;21637;53.352;-6.356;2023-11-22T11:31:59;2.03;;;1.25;;
35530;SDS011;21637;53.352;-6.356;2023-11-22T11:34:27;2.00;;;1.23;;
35530;SDS011;21637;53.352;-6.356;2023-11-22T11:36:54;2.90;;;1.60;;
35530;SDS011;21637;53.352;-6.356;2023-11-22T11:39:27;1.90;;;1.30;;
35530;SDS011;21637;53.352;-6.356;2023-11-22T11:42:11;3.10;;;1.50;;
35530;SDS011;21637;53.352;-6.356;2023-11-22T11:44:50;2.08;;;1.70;;
35530;SDS011;21637;53.352;-6.356;2023-11-22T11:47:28;3.63;;;2.03;;
35530;SDS011;21637;53.352;-6.356;2023-11-22T11:49:57;3.25;;;2.30;;
35530;SDS011;21637;53.352;-6.356;2023-11-22T11:52:26;3.55;;;2.30;;
35530;SDS011;21637;53.352;-6.356;2023-11-22T11:54:52;3.45;;;1.73;;
35530;SDS011;21637;53.352;-6.356;2023-11-22T11:57:18;2.67;;;1.90;;
35530;SDS011;21637;53.352;-6.356;2023-11-22T11:59:44;3.92;;;2.25;;
35530;SDS011;21637;53.352;-6.356;2023-11-22T12:02:11;2.55;;;2.33;;
35530;SDS011;21637;53.352;-6.356;2023-11-22T12:04:37;2.80;;;2.00;;
35530;SDS011;21637;53.352;-6.356;2023-11-22T12:07:03;3.38;;;1.80;;
35530;SDS011;21637;53.352;-6.356;2023-11-22T12:09:32;2.38;;;1.80;;
35530;SDS011;21637;53.352;-6.356;2023-11-22T12:12:00;2.00;;;1.70;;
35530;SDS011;21637;53.352;-6.356;2023-11-22T12:14:29;5.90;;;1.30;;
35530;SDS011;21637;53.352;-6.356;2023-11-22T12:16:55;4.28;;;1.73;;
35530;SDS011;21637;53.352;-6.356;2023-11-22T12:19:24;2.25;;;1.70;;
35530;SDS011;21637;53.352;-6.356;2023-11-22T12:21:58;2.47;;;1.42;;
35530;SDS011;21637;53.352;-6.356;2023-11-22T12:24:24;2.20;;;1.50;;
35530;SDS011;21637;53.352;-6.356;2023-11-22T12:26:50;2.17;;;1.50;;
35530;SDS011;21637;53.352;-6.356;2023-11-22T12:29:19;2.25;;;1.25;;
35530;SDS011;21637;53.352;-6.356;2023-11-22T12:31:48;3.22;;;1.35;;
35530;SDS011;21637;53.352;-6.356;2023-11-22T12:34:20;1.40;;;1.30;;
35530;SDS011;21637;53.352;-6.356;2023-11-22T12:36:47;2.70;;;1.77;;
35530;SDS011;21637;53.352;-6.356;2023-11-22T12:39:13;1.98;;;1.70;;
35530;SDS011;21637;53.352;-6.356;2023-11-22T12:41:47;3.00;;;1.70;;
35530;SDS011;21637;53.352;-6.356;2023-11-22T12:44:15;3.42;;;1.60;;
35530;SDS011;21637;53.352;-6.356;2023-11-22T12:49:11;3.22;;;1.20;;
35530;SDS011;21637;53.352;-6.356;2023-11-22T12:51:37;1.23;;;1.13;;
35530;SDS011;21637;53.352;-6.356;2023-11-22T12:54:04;1.20;;;1.10;;
35530;SDS011;21637;53.352;-6.356;2023-11-22T12:56:30;1.08;;;0.98;;
35530;SDS011;21637;53.352;-6.356;2023-11-22T12:58:56;2.58;;;1.30;;
35530;SDS011;21637;53.352;-6.356;2023-11-22T13:01:21;1.98;;;1.10;;
35530;SDS011;21637;53.352;-6.356;2023-11-22T13:03:47;1.50;;;1.00;;
35530;SDS011;21637;53.352;-6.356;2023-11-22T13:06:14;1.95;;;1.00;;
35530;SDS011;21637;53.352;-6.356;2023-11-22T13:08:42;2.45;;;1.27;;
35530;SDS011;21637;53.352;-6.356;2023-11-22T13:11:08;2.83;;;1.20;;
35530;SDS011;21637;53.352;-6.356;2023-11-22T13:13:34;2.65;;;1.20;;
35530;SDS011;21637;53.352;-6.356;2023-11-22T13:16:00;2.83;;;1.20;;
35530;SDS011;21637;53.352;-6.356;2023-11-22T13:18:26;2.35;;;1.17;;
35530;SDS011;21637;53.352;-6.356;2023-11-22T13:20:52;2.33;;;1.33;;
35530;SDS011;21637;53.352;-6.356;2023-11-22T13:23:17;3.30;;;1.33;;
35530;SDS011;21637;53.352;-6.356;2023-11-22T13:25:43;1.73;;;1.00;;
35530;SDS011;21637;53.352;-6.356;2023-11-22T13:28:12;1.80;;;1.35;;
35530;SDS011;21637;53.352;-6.356;2023-11-22T13:30:38;4.13;;;1.20;;
35530;SDS011;21637;53.352;-6.356;2023-11-22T13:33:04;2.78;;;1.10;;
35530;SDS011;21637;53.352;-6.356;2023-11-22T13:35:30;2.17;;;1.25;;
35530;SDS011;21637;53.352;-6.356;2023-11-22T13:37:57;2.22;;;1.35;;
35530;SDS011;21637;53.352;-6.356;2023-11-22T13:40:24;2.03;;;1.48;;
35530;SDS011;21637;53.352;-6.356;2023-11-22T13:42:52;6.28;;;1.33;;
35530;SDS011;21637;53.352;-6.356;2023-11-22T13:45:18;5.30;;;1.27;;
35530;SDS011;21637;53.352;-6.356;2023-11-22T13:47:45;5.97;;;1.40;;
35530;SDS011;21637;53.352;-6.356;2023-11-22T13:50:18;2.80;;;1.50;;
35530;SDS011;21637;53.352;-6.356;2023-11-22T13:52:45;3.08;;;1.33;;
35530;SDS011;21637;53.352;-6.356;2023-11-22T13:55:11;4.72;;;1.50;;
35530;SDS011;21637;53.352;-6.356;2023-11-22T13:57:38;4.65;;;1.55;;
35530;SDS011;21637;53.352;-6.356;2023-11-22T14:00:04;2.42;;;1.23;;
35530;SDS011;21637;53.352;-6.356;2023-11-22T14:02:46;1.98;;;1.17;;
35530;SDS011;21637;53.352;-6.356;2023-11-22T14:05:20;3.70;;;1.48;;
35530;SDS011;21637;53.352;-6.356;2023-11-22T14:07:46;3.33;;;1.60;;
35530;SDS011;21637;53.352;-6.356;2023-11-22T14:10:13;2.80;;;1.25;;
35530;SDS011;21637;53.352;-6.356;2023-11-22T14:12:41;5.30;;;1.73;;
35530;SDS011;21637;53.352;-6.356;2023-11-22T14:15:10;3.67;;;1.77;;
35530;SDS011;21637;53.352;-6.356;2023-11-22T14:17:36;4.10;;;1.30;;
35530;SDS011;21637;53.352;-6.356;2023-11-22T14:22:34;2.33;;;1.20;;
35530;SDS011;21637;53.352;-6.356;2023-11-22T14:25:08;3.58;;;1.60;;
35530;SDS011;21637;53.352;-6.356;2023-11-22T14:30:11;3.67;;;1.52;;
35530;SDS011;21637;53.352;-6.356;2023-11-22T14:32:42;2.00;;;1.27;;
35530;SDS011;21637;53.352;-6.356;2023-11-22T14:35:08;4.20;;;1.52;;
35530;SDS011;21637;53.352;-6.356;2023-11-22T14:37:35;4.22;;;1.60;;
35530;SDS011;21637;53.352;-6.356;2023-11-22T14:40:02;3.70;;;1.58;;
35530;SDS011;21637;53.352;-6.356;2023-11-22T14:42:39;3.83;;;1.55;;
35530;SDS011;21637;53.352;-6.356;2023-11-22T14:45:10;2.20;;;1.33;;
35530;SDS011;21637;53.352;-6.356;2023-11-22T14:47:39;2.90;;;1.60;;
35530;SDS011;21637;53.352;-6.356;2023-11-22T14:50:05;3.40;;;1.67;;